createdAt,value
2022-11-14T00:00:36.845Z,101211.72
2022-11-14T00:03:20.582Z,101205.89
2022-11-14T00:04:48.686Z,101209.04
2022-11-14T00:06:16.952Z,101211.65
2022-11-14T00:07:45.533Z,101209.04
2022-11-14T00:09:14.498Z,101205.58
2022-11-14T00:10:42.678Z,101205.75
2022-11-14T00:13:26.548Z,101189.14
2022-11-14T00:16:10.732Z,101199.78
2022-11-14T00:17:39.046Z,101197.72
2022-11-14T00:20:21.147Z,101196.46
2022-11-14T00:23:03.525Z,101197.58
2022-11-14T00:24:31.824Z,101211.47
2022-11-14T00:25:59.281Z,101204.36
2022-11-14T00:28:41.651Z,101207.65
2022-11-14T00:31:25.738Z,101202.00
2022-11-14T00:34:08.996Z,101211.38
2022-11-14T00:36:51.258Z,101214.81
2022-11-14T00:39:34.359Z,101211.24
2022-11-14T00:41:02.591Z,101216.13
2022-11-14T00:42:30.594Z,101217.94
2022-11-14T00:45:13.247Z,101211.45
2022-11-14T00:46:42.185Z,101217.32
2022-11-14T00:48:11.583Z,101216.63
2022-11-14T00:49:39.200Z,101217.56
2022-11-14T00:51:06.825Z,101212.20
2022-11-14T00:53:48.479Z,101211.04
2022-11-14T00:55:16.089Z,101212.34
2022-11-14T00:56:49.312Z,101210.66
2022-11-14T00:59:33.465Z,101206.67
2022-11-14T01:02:15.706Z,101210.15
2022-11-14T01:03:42.963Z,101207.13
2022-11-14T01:05:10.283Z,101213.41
2022-11-14T01:06:37.410Z,101212.61
2022-11-14T01:08:04.824Z,101210.00
2022-11-14T01:10:50.607Z,101206.98
2022-11-14T01:12:18.085Z,101215.52
2022-11-14T01:13:47.236Z,101216.41
2022-11-14T01:16:29.246Z,101216.08
2022-11-14T01:17:56.787Z,101221.87
2022-11-14T01:19:24.328Z,101218.47
2022-11-14T01:22:08.518Z,101217.64
2022-11-14T01:24:52.255Z,101223.13
2022-11-14T01:26:19.388Z,101221.70
2022-11-14T01:27:46.633Z,101221.80
2022-11-14T01:29:13.889Z,101231.67
2022-11-14T01:30:42.457Z,101223.71
2022-11-14T01:32:09.477Z,101228.36
2022-11-14T01:33:36.797Z,101222.22
2022-11-14T01:35:06.413Z,101229.32
2022-11-14T01:36:33.194Z,101220.41
2022-11-14T01:38:02.159Z,101218.62
2022-11-14T01:40:45.920Z,101216.48
2022-11-14T01:43:33.381Z,101223.02
2022-11-14T01:45:01.354Z,101230.66
2022-11-14T01:46:33.097Z,101231.58
2022-11-14T01:48:00.915Z,101229.16
2022-11-14T01:50:58.017Z,101226.08
2022-11-14T01:52:28.947Z,101234.51
2022-11-14T01:54:00.930Z,101237.34
2022-11-14T01:55:28.793Z,101236.48
2022-11-14T01:56:59.064Z,101236.55
2022-11-14T01:58:30.409Z,101233.80
2022-11-14T02:01:22.720Z,101226.87
2022-11-14T02:02:51.875Z,101232.63
2022-11-14T02:04:32.636Z,101228.97
2022-11-14T02:06:03.089Z,101226.23
2022-11-14T02:07:33.963Z,101225.56
2022-11-14T02:09:04.534Z,101233.74
2022-11-14T02:11:49.275Z,101220.44
2022-11-14T02:14:36.592Z,101224.80
2022-11-14T02:17:30.604Z,101227.53
2022-11-14T02:18:52.057Z,101226.19
2022-11-14T02:21:42.312Z,101226.61
2022-11-14T02:23:11.456Z,101237.78
2022-11-14T02:25:55.130Z,101226.48
2022-11-14T02:27:22.236Z,101241.19
2022-11-14T02:30:08.966Z,101235.55
2022-11-14T02:31:36.899Z,101243.98
2022-11-14T02:34:19.820Z,101238.57
2022-11-14T02:37:07.958Z,101229.81
2022-11-14T02:38:37.047Z,101237.41
2022-11-14T02:41:22.089Z,101225.73
2022-11-14T02:44:06.877Z,101221.16
2022-11-14T02:45:34.280Z,101227.94
2022-11-14T02:48:19.154Z,101225.58
2022-11-14T02:49:46.843Z,101225.02
2022-11-14T02:51:14.842Z,101232.17
2022-11-14T02:52:42.865Z,101233.81
2022-11-14T02:54:10.927Z,101226.56
2022-11-14T02:56:58.011Z,101225.27
2022-11-14T02:58:25.437Z,101234.05
2022-11-14T03:01:24.642Z,101233.81
2022-11-14T03:02:39.360Z,101238.62
2022-11-14T03:05:24.310Z,101232.95
2022-11-14T03:08:07.132Z,101225.91
2022-11-14T03:09:35.195Z,101230.79
2022-11-14T03:11:08.523Z,101234.38
2022-11-14T03:12:36.038Z,101226.36
2022-11-14T03:15:19.363Z,101222.34
2022-11-14T03:18:02.317Z,101226.03
2022-11-14T03:19:29.486Z,101220.16
2022-11-14T03:20:57.111Z,101232.56
2022-11-14T03:22:25.346Z,101234.44
2022-11-14T03:23:53.083Z,101237.91
2022-11-14T03:26:34.955Z,101236.87
2022-11-14T03:28:02.859Z,101242.72
2022-11-14T03:29:30.233Z,101238.27
2022-11-14T03:32:12.294Z,101231.65
2022-11-14T03:34:54.850Z,101247.95
2022-11-14T03:37:38.551Z,101239.91
2022-11-14T03:40:22.800Z,101246.17
2022-11-14T03:43:06.774Z,101238.03
2022-11-14T03:44:34.143Z,101242.84
2022-11-14T03:47:18.648Z,101241.75
2022-11-14T03:50:20.352Z,101246.61
2022-11-14T03:51:55.534Z,101247.91
2022-11-14T03:53:23.443Z,101248.02
2022-11-14T03:56:07.433Z,101242.56
2022-11-14T03:57:35.788Z,101245.64
2022-11-14T07:17:16.765Z,101348.44
2022-11-14T07:19:59.276Z,101334.63
2022-11-14T07:21:28.751Z,101345.64
2022-11-14T07:24:12.255Z,101348.59
2022-11-14T07:25:40.798Z,101356.22
2022-11-14T07:27:12.436Z,101358.16
2022-11-14T07:28:42.663Z,101358.95
2022-11-14T07:31:26.734Z,101353.06
2022-11-14T07:34:14.332Z,101355.02
2022-11-14T07:36:56.172Z,101355.08
2022-11-14T07:39:38.721Z,101358.91
2022-11-14T07:41:09.564Z,101361.22
2022-11-14T07:43:51.153Z,101360.42
2022-11-14T07:46:35.578Z,101353.30
2022-11-14T07:48:03.803Z,101365.05
2022-11-14T07:49:32.765Z,101357.81
2022-11-14T07:52:18.064Z,101351.47
2022-11-14T07:53:45.324Z,101363.15
2022-11-14T07:56:30.581Z,101345.98
2022-11-14T07:59:16.412Z,101335.87
2022-11-14T08:00:43.931Z,101328.40
2022-11-14T08:03:29.982Z,101341.16
2022-11-14T08:06:15.032Z,101335.95
2022-11-14T08:08:57.202Z,101330.98
2022-11-14T08:11:49.278Z,101333.99
2022-11-14T08:14:31.291Z,101330.45
2022-11-14T08:17:35.407Z,101330.41
2022-11-14T08:20:19.214Z,101328.63
2022-11-14T08:23:03.869Z,101328.05
2022-11-14T08:25:46.409Z,101323.41
2022-11-14T08:28:29.651Z,101318.22
2022-11-14T08:31:13.228Z,101318.48
2022-11-14T08:33:56.396Z,101312.01
2022-11-14T08:36:38.523Z,101318.37
2022-11-14T08:38:05.993Z,101315.89
2022-11-14T08:40:49.964Z,101314.63
2022-11-14T08:43:33.130Z,101300.00
2022-11-14T08:46:16.385Z,101303.12
2022-11-14T08:49:07.754Z,101303.36
2022-11-14T08:52:16.472Z,101304.35
2022-11-14T08:55:07.643Z,101304.97
2022-11-14T08:57:53.998Z,101306.23
2022-11-14T08:59:20.903Z,101310.89
2022-11-14T09:02:04.573Z,101304.63
2022-11-14T09:04:48.823Z,101305.91
2022-11-14T09:06:17.256Z,101301.02
2022-11-14T09:07:44.908Z,101307.44
2022-11-14T09:10:29.624Z,101296.66
2022-11-14T09:11:57.154Z,101299.63
2022-11-14T09:14:39.028Z,101287.66
2022-11-14T09:17:22.683Z,101279.83
2022-11-14T09:18:50.789Z,101286.58
2022-11-14T09:21:34.455Z,101282.08
2022-11-14T09:24:17.402Z,101276.21
2022-11-14T09:27:01.653Z,101270.95
2022-11-14T09:29:44.470Z,101281.53
2022-11-14T09:32:31.081Z,101280.72
2022-11-14T09:33:58.219Z,101286.47
2022-11-14T09:36:42.122Z,101282.72
2022-11-14T09:39:27.867Z,101281.53
2022-11-14T09:44:22.247Z,101266.13
2022-11-14T09:47:16.636Z,101268.32
2022-11-14T10:17:25.125Z,101266.06
2022-11-14T10:20:36.921Z,101258.95
2022-11-14T10:22:20.771Z,101261.77
2022-11-14T10:25:32.767Z,101259.09
2022-11-14T10:27:07.838Z,101263.96
2022-11-14T10:30:18.084Z,101249.55
2022-11-14T10:34:55.000Z,101254.67
2022-11-14T10:40:54.199Z,101239.91
2022-11-14T10:43:51.903Z,101241.03
2022-11-14T10:47:07.807Z,101237.13
2022-11-14T10:48:42.101Z,101240.28
2022-11-14T10:51:56.498Z,101237.49
2022-11-14T10:55:01.223Z,101239.98
2022-11-14T10:57:49.169Z,101235.13
2022-11-14T10:59:17.492Z,101239.98
2022-11-14T11:01:59.745Z,101227.72
2022-11-14T11:03:44.126Z,101234.39
2022-11-14T11:05:18.000Z,101229.17
2022-11-14T11:08:42.090Z,101234.67
2022-11-14T11:10:11.585Z,101236.06
2022-11-14T11:11:40.964Z,101231.48
2022-11-14T11:13:16.012Z,101221.56
2022-11-14T11:14:47.791Z,101234.16
2022-11-14T11:17:40.303Z,101215.89
2022-11-14T11:20:43.317Z,101215.81
2022-11-14T11:22:31.869Z,101231.28
2022-11-14T11:27:16.028Z,101226.30
2022-11-14T11:30:09.107Z,101223.12
2022-11-14T11:34:37.227Z,101232.34
2022-11-14T11:36:14.442Z,101230.27
2022-11-14T11:37:57.079Z,101232.50
2022-11-14T11:40:48.204Z,101225.23
2022-11-14T11:47:36.988Z,101229.92
2022-11-14T11:50:24.492Z,101232.24
2022-11-14T11:51:54.988Z,101231.15
2022-11-14T11:55:04.984Z,101217.05
2022-11-14T11:58:07.707Z,101217.19
2022-11-14T11:59:45.410Z,101217.64
2022-11-14T12:02:51.416Z,101213.40
2022-11-14T12:05:40.822Z,101213.20
2022-11-14T12:09:09.120Z,101206.05
2022-11-14T12:10:40.322Z,101216.26
2022-11-14T12:13:51.846Z,101211.11
2022-11-14T12:17:03.024Z,101205.68
2022-11-14T12:20:27.372Z,101209.64
2022-11-14T12:22:04.415Z,101211.68
2022-11-14T12:23:51.804Z,101215.59
2022-11-14T12:27:30.706Z,101202.45
2022-11-14T12:29:14.140Z,101210.63
2022-11-14T12:30:46.327Z,101205.65
2022-11-14T12:32:16.912Z,101207.92
2022-11-14T12:35:24.127Z,101203.28
2022-11-14T12:39:29.844Z,101203.44
2022-11-14T12:41:01.283Z,101211.05
2022-11-14T12:43:47.014Z,101202.50
2022-11-14T12:47:10.845Z,101200.51
2022-11-14T12:50:06.772Z,101203.59
2022-11-14T12:53:08.453Z,101197.06
2022-11-14T12:57:47.351Z,101198.22
2022-11-14T13:00:51.807Z,101183.56
2022-11-14T13:04:23.701Z,101192.84
2022-11-14T13:07:34.498Z,101191.39
2022-11-14T13:10:42.984Z,101178.47
2022-11-14T13:14:20.408Z,101191.65
2022-11-14T13:17:46.622Z,101193.17
2022-11-14T13:21:20.753Z,101195.30
2022-11-14T13:22:48.302Z,101192.31
2022-11-14T13:25:33.076Z,101190.67
2022-11-14T13:28:39.528Z,101196.82
2022-11-14T13:30:07.943Z,101192.91
2022-11-14T13:32:59.008Z,101187.99
2022-11-14T13:34:33.458Z,101192.09
2022-11-14T13:39:20.807Z,101176.18
2022-11-14T13:42:26.517Z,101187.61
2022-11-14T13:45:48.568Z,101188.63
2022-11-14T13:47:38.404Z,101190.94
2022-11-14T13:49:16.004Z,101195.45
2022-11-14T13:52:02.663Z,101185.46
2022-11-14T13:53:32.009Z,101189.56
2022-11-14T13:55:01.666Z,101190.42
2022-11-14T13:58:24.339Z,101186.47
2022-11-14T14:01:39.323Z,101185.50
2022-11-14T14:05:04.013Z,101193.84
2022-11-14T14:06:51.997Z,101191.80
2022-11-14T14:10:27.493Z,101193.16
2022-11-14T14:13:55.542Z,101187.06
2022-11-14T14:19:28.518Z,101191.64
2022-11-14T14:21:13.013Z,101204.61
2022-11-14T14:24:04.535Z,101197.86
2022-11-14T14:30:17.761Z,101200.39
2022-11-14T14:31:45.948Z,101201.94
2022-11-14T14:33:14.968Z,101198.51
2022-11-14T14:34:42.242Z,101203.08
2022-11-14T14:39:32.978Z,101209.29
2022-11-14T14:42:18.675Z,101205.23
2022-11-14T14:45:18.489Z,101203.59
2022-11-14T14:46:45.900Z,101213.97
2022-11-14T14:49:37.816Z,101215.45
2022-11-14T14:51:07.624Z,101212.75
2022-11-14T14:53:53.571Z,101206.97
2022-11-14T14:56:47.063Z,101203.98
2022-11-14T14:59:32.701Z,101201.14
2022-11-14T15:02:29.317Z,101218.69
2022-11-14T15:05:27.360Z,101215.02
2022-11-14T15:08:16.429Z,101209.20
2022-11-14T15:09:57.452Z,101214.13
2022-11-14T15:11:31.383Z,101214.27
2022-11-14T15:12:56.953Z,101214.19
2022-11-14T15:14:31.119Z,101219.02
2022-11-14T15:17:14.663Z,101221.05
2022-11-14T15:20:00.379Z,101218.27
2022-11-14T15:21:29.771Z,101218.80
2022-11-14T15:25:07.138Z,101217.71
2022-11-14T15:27:52.919Z,101223.16
2022-11-14T15:30:38.950Z,101221.16
2022-11-14T15:33:30.734Z,101226.05
2022-11-14T15:35:25.302Z,101233.78
2022-11-14T15:37:14.269Z,101235.33
2022-11-14T15:41:35.827Z,101226.44
2022-11-14T15:44:38.796Z,101234.80
2022-11-14T15:47:42.050Z,101232.69
2022-11-14T15:50:33.519Z,101233.00
2022-11-14T15:53:24.334Z,101230.70
2022-11-14T15:56:10.176Z,101225.78
2022-11-14T15:58:58.804Z,101228.45
2022-11-14T16:02:21.064Z,101226.36
2022-11-14T16:05:06.100Z,101222.09
2022-11-14T16:07:50.044Z,101218.11
2022-11-14T16:09:20.993Z,101222.90
2022-11-14T16:12:04.350Z,101219.77
2022-11-14T16:14:46.895Z,101219.87
2022-11-14T16:17:34.466Z,101222.64
2022-11-14T16:20:20.319Z,101220.30
2022-11-14T16:23:04.796Z,101215.17
2022-11-14T16:25:49.525Z,101209.06
2022-11-14T16:28:31.535Z,101215.28
2022-11-14T16:31:17.044Z,101209.21
2022-11-14T16:34:04.180Z,101209.38
2022-11-14T16:36:48.161Z,101216.41
2022-11-14T16:39:31.107Z,101214.03
2022-11-14T16:42:14.867Z,101222.84
2022-11-14T16:45:02.964Z,101215.55
2022-11-14T16:47:45.113Z,101212.93
2022-11-14T16:50:31.007Z,101214.54
2022-11-14T16:53:15.426Z,101213.67
2022-11-14T16:55:57.415Z,101207.00
2022-11-14T16:58:41.503Z,101207.16
2022-11-14T17:00:11.765Z,101205.83
2022-11-14T17:02:55.482Z,101213.73
2022-11-14T17:05:57.776Z,101200.05
2022-11-14T17:08:41.973Z,101208.50
2022-11-14T17:11:26.703Z,101215.67
2022-11-14T17:14:08.499Z,101210.16
2022-11-14T17:16:51.827Z,101207.78
2022-11-14T17:19:34.227Z,101208.26
2022-11-14T17:22:20.813Z,101207.34
2022-11-14T17:25:11.394Z,101212.73
2022-11-14T17:27:54.903Z,101209.47
2022-11-14T17:30:41.399Z,101210.48
2022-11-14T17:33:23.347Z,101220.08
2022-11-14T17:36:08.874Z,101213.84
2022-11-14T17:38:51.539Z,101212.02
2022-11-14T17:41:35.835Z,101209.47
2022-11-14T17:44:19.187Z,101208.66
2022-11-14T17:47:13.038Z,101209.52
2022-11-14T17:49:55.904Z,101208.61
2022-11-14T17:52:37.662Z,101209.38
2022-11-14T17:55:20.047Z,101213.89
2022-11-14T17:58:24.857Z,101210.57
2022-11-14T18:02:28.758Z,101212.42
2022-11-14T18:05:12.877Z,101208.00
2022-11-14T18:07:56.921Z,101200.56
2022-11-14T18:10:40.106Z,101192.28
2022-11-14T18:13:27.488Z,101194.86
2022-11-14T18:17:32.007Z,101196.55
2022-11-14T18:20:15.595Z,101201.16
2022-11-14T18:23:00.202Z,101190.91
2022-11-14T18:25:43.012Z,101185.07
2022-11-14T18:27:09.985Z,101185.02
2022-11-14T18:28:37.035Z,101195.33
2022-11-14T18:30:20.048Z,101186.20
2022-11-14T18:32:51.228Z,101192.28
2022-11-14T18:34:20.120Z,101193.86
2022-11-14T18:37:15.446Z,101190.57
2022-11-14T18:38:49.758Z,101195.52
2022-11-14T18:41:52.533Z,101190.96
2022-11-14T18:43:20.039Z,101185.91
2022-11-14T18:44:48.016Z,101192.02
2022-11-14T18:47:34.369Z,101182.72
2022-11-14T18:49:01.168Z,101189.34
2022-11-14T18:50:28.449Z,101186.39
2022-11-14T18:51:57.340Z,101187.05
2022-11-14T18:54:40.381Z,101184.34
2022-11-14T18:57:29.176Z,101189.31
2022-11-14T18:58:56.908Z,101192.28
2022-11-14T19:00:27.397Z,101200.06
2022-11-14T19:01:55.329Z,101205.50
2022-11-14T19:03:23.577Z,101206.30
2022-11-14T19:06:09.228Z,101203.09
2022-11-14T19:09:15.111Z,101197.91
2022-11-14T19:12:16.669Z,101203.93
2022-11-14T19:15:01.694Z,101208.05
2022-11-14T19:17:48.625Z,101201.96
2022-11-14T19:20:32.107Z,101206.86
2022-11-14T19:23:16.741Z,101207.09
2022-11-14T19:26:05.760Z,101205.55
2022-11-14T19:28:49.620Z,101212.16
2022-11-14T19:31:33.418Z,101212.06
2022-11-14T19:34:20.142Z,101205.03
2022-11-14T19:37:04.301Z,101203.98
2022-11-14T19:39:46.221Z,101193.98
2022-11-14T19:42:35.184Z,101193.58
2022-11-14T19:45:18.168Z,101195.14
2022-11-14T19:48:00.392Z,101179.80
2022-11-14T19:50:43.536Z,101176.97
2022-11-14T19:53:26.681Z,101180.25
2022-11-14T19:56:11.987Z,101171.03
2022-11-14T19:58:56.125Z,101183.30
2022-11-14T20:01:41.691Z,101176.95
2022-11-14T20:03:11.273Z,101182.53
2022-11-14T20:05:54.409Z,101180.23
2022-11-14T20:08:37.151Z,101173.83
2022-11-14T20:11:22.238Z,101163.95
2022-11-14T20:14:06.765Z,101171.44
2022-11-14T20:16:50.459Z,101182.00
2022-11-14T20:19:33.169Z,101181.20
2022-11-14T20:21:11.228Z,101185.91
2022-11-14T20:22:38.212Z,101181.38
2022-11-14T20:24:05.880Z,101176.97
2022-11-14T20:26:52.094Z,101177.70
2022-11-14T20:28:19.181Z,101182.46
2022-11-14T20:29:46.441Z,101185.18
2022-11-14T20:31:16.221Z,101186.94
2022-11-14T20:33:59.923Z,101168.83
2022-11-14T20:35:28.270Z,101175.31
2022-11-14T20:38:12.093Z,101168.83
2022-11-14T20:40:55.749Z,101171.55
2022-11-14T20:43:39.833Z,101169.69
2022-11-14T20:46:23.187Z,101162.58
2022-11-14T20:49:08.350Z,101159.02
2022-11-14T20:51:50.879Z,101149.27
2022-11-14T20:54:34.463Z,101152.66
2022-11-14T20:56:04.262Z,101155.49
2022-11-14T20:57:33.728Z,101153.44
2022-11-14T21:00:18.089Z,101153.58
2022-11-14T21:01:46.219Z,101157.58
2022-11-14T21:03:13.881Z,101159.47
2022-11-14T21:05:56.275Z,101150.30
2022-11-14T21:08:46.307Z,101152.97
2022-11-14T21:12:08.001Z,101154.86
2022-11-14T21:13:55.607Z,101152.66
2022-11-14T21:16:40.363Z,101141.13
2022-11-14T21:19:42.515Z,101142.91
2022-11-14T21:22:28.810Z,101144.35
2022-11-14T21:25:13.100Z,101139.94
2022-11-14T21:27:55.891Z,101138.13
2022-11-14T21:30:38.769Z,101144.19
2022-11-14T21:33:23.148Z,101145.05
2022-11-14T21:36:30.111Z,101136.13
2022-11-14T21:38:55.890Z,101127.20
2022-11-14T21:41:39.047Z,101137.93
2022-11-14T21:44:22.196Z,101123.01
2022-11-14T21:47:15.116Z,101125.73
2022-11-14T21:50:01.315Z,101128.23
2022-11-14T21:52:43.993Z,101112.11
2022-11-14T21:55:26.339Z,101105.91
2022-11-14T21:58:09.289Z,101113.86
2022-11-14T22:00:50.898Z,101104.99
2022-11-14T22:04:09.803Z,101108.29
2022-11-14T22:06:53.043Z,101105.91
2022-11-14T22:09:39.790Z,101100.30
2022-11-14T22:12:21.678Z,101102.97
2022-11-14T22:15:05.619Z,101103.64
2022-11-14T22:17:48.789Z,101104.69
2022-11-14T22:20:32.044Z,101100.98
2022-11-14T22:23:15.110Z,101084.87
2022-11-14T22:26:00.214Z,101080.59
2022-11-14T22:29:01.575Z,101069.91
2022-11-14T22:30:30.401Z,101081.81
2022-11-14T22:33:34.780Z,101077.30
2022-11-14T22:36:20.498Z,101084.42
2022-11-14T22:39:02.905Z,101081.64
2022-11-14T22:41:47.071Z,101080.59
2022-11-14T22:44:29.733Z,101083.27
2022-11-14T22:45:57.692Z,101087.21
2022-11-14T22:48:42.513Z,101070.69
2022-11-14T22:51:27.518Z,101063.53
2022-11-14T22:54:12.787Z,101066.70
2022-11-14T22:57:04.370Z,101066.84
2022-11-14T22:59:51.535Z,101066.79
2022-11-14T23:02:38.281Z,101060.59
2022-11-14T23:05:23.926Z,101055.83
2022-11-14T23:06:51.248Z,101061.45
2022-11-14T23:08:20.755Z,101055.19
2022-11-14T23:12:51.753Z,101054.25
2022-11-14T23:15:34.778Z,101053.27
2022-11-14T23:18:18.142Z,101048.72
2022-11-14T23:21:15.667Z,101054.25
2022-11-14T23:23:59.937Z,101043.75
2022-11-14T23:25:27.470Z,101034.40
2022-11-14T23:26:55.834Z,101037.93
2022-11-14T23:31:26.994Z,101034.21
2022-11-14T23:34:09.126Z,101031.02
2022-11-14T23:36:51.229Z,101032.38
2022-11-14T23:38:18.989Z,101034.59
2022-11-14T23:39:46.405Z,101034.53
2022-11-14T23:42:37.094Z,101019.16
2022-11-14T23:45:20.626Z,101013.23
2022-11-14T23:48:04.365Z,101009.03
2022-11-14T23:49:31.280Z,101014.08
2022-11-14T23:50:59.160Z,101017.73
2022-11-14T23:52:27.426Z,101018.70
2022-11-14T23:53:55.351Z,101018.77
2022-11-14T23:55:22.424Z,101015.30
2022-11-14T23:56:51.585Z,101017.91
2022-11-14T23:58:20.287Z,101021.44
2022-11-14T23:59:53.789Z,101018.70
